Terminal Aerodrome Forecast
Issued by NWS North Platte, NE

Home | Current Version | Previous Version | Text Only | Print | Product List | Glossary Off
Versions: 1 2 3 4 5 6 7 8 9 10 11 12 13 14 15

000
FTUS43 KLBF 301720
TAFVTN
TAF
KVTN 301720Z 3018/3118 29010KT P6SM SCT120
     FM302300 34008KT P6SM SCT120
     FM310300 VRB06KT P6SM SKC
     FM311500 09008KT P6SM SCT120=

USA.gov is the U.S. government's official web portal to all federal, state and local government web resources and services.